DW4764 Weather Reports


Display with metric or nautical units.
time (UTC)temp
F
wind
direction
speed
MPH
gust
MPH
rain 1hr
in
rain 24hr
in
rain mn
in
humidity
%
barometer
mb
20260906213049 81 185 14.0 21.0 0.00 0.00 0.00 25 1003.9
20260906211553 82 219 13.0 23.0 0.00 0.00 0.00 24 1003.8
20260906210048 81 215 12.0 18.0 0.00 0.00 0.00 23 1003.9
20260906204543 82 202 11.0 20.0 0.00 0.00 0.00 21 1004.2
20260906203042 82 158 9.0 23.0 0.00 0.00 0.00 24 1004.3
20260906201541 81 181 8.0 13.0 0.00 0.00 0.00 25 1004.5
20260906200037 82 198 9.0 17.0 0.00 0.00 0.00 22 1004.8
20260906194535 82 108 8.0 17.0 0.00 0.00 0.00 22 1005.0
20260906193033 81 131 9.0 13.0 0.00 0.00 0.00 23 1005.1
20260906191530 80 133 10.0 17.0 0.00 0.00 0.00 23 1005.3
20260906190029 80 101 10.0 18.0 0.00 0.00 0.00 21 1005.6
20260906184527 79 92 9.0 18.0 0.00 0.00 0.00 24 1006.0
20260906183043 80 143 8.0 13.0 0.00 0.00 0.00 23 1006.2
20260906181524 79 146 9.0 17.0 0.00 0.00 0.00 23 1006.6
20260906180023 80 205 8.0 13.0 0.00 0.00 0.00 24 1006.8
20260906174522 80 181 6.0 17.0 0.00 0.00 0.00 23 1007.0
20260906173021 79 221 7.0 15.0 0.00 0.00 0.00 23 1007.2
20260906171521 79 213 6.0 10.0 0.00 0.00 0.00 24 1007.4
20260906170021 78 90 6.0 12.0 0.00 0.00 0.00 25 1007.6
20260906164516 77 139 4.0 11.0 0.00 0.00 0.00 25 1007.7
20260906163014 76 81 3.0 10.0 0.00 0.00 0.00 27 1007.9
20260906161512 75 122 2.0 10.0 0.00 0.00 0.00 25 1007.9
20260906160016 74 12 3.0 9.0 0.00 0.00 0.00 30 1007.8
20260906154505 72 34 4.0 7.0 0.00 0.00 0.00 31 1007.7
20260906153003 70 359 4.0 7.0 0.00 0.00 0.00 34 1007.8
20260906151601 69 53 3.0 7.0 0.00 0.00 0.00 36 1007.9
20260906144603 67 350 3.0 6.0 0.00 0.00 0.00 39 1008.0
20260906143054 66 62 3.0 8.0 0.00 0.00 0.00 41 1008.0
20260906141551 65 8 4.0 7.0 0.00 0.00 0.00 39 1007.9
20260906140047 65 63 4.0 5.0 0.00 0.00 0.00 41 1007.9
20260906134549 64 28 1.0 3.0 0.00 0.00 0.00 41 1007.8
20260906133046 62 67 0.0 0.0 0.00 0.00 0.00 44 1007.7
20260906131541 62 24 0.0 2.0 0.00 0.00 0.00 45 1007.5
20260906130044 60 10 0.0 1.0 0.00 0.00 0.00 46 1007.5
20260906124540 58 347 0.0 0.0 0.00 0.00 0.00 49 1007.6
20260906123041 57 1 0.0 1.0 0.00 0.00 0.00 50 1007.4
20260906121542 58 31 0.0 2.0 0.00 0.00 0.00 50 1007.3
20260906120035 57 349 0.0 0.0 0.00 0.00 0.00 51 1007.2
20260906114541 57 350 0.0 2.0 0.00 0.00 0.00 51 1007.1
20260906113044 56 198 0.0 0.0 0.00 0.00 0.00 54 1007.2
20260906111531 57 255 0.0 0.0 0.00 0.00 0.00 52 1006.9
20260906110030 57 255 0.0 0.0 0.00 0.00 0.00 52 1006.8
20260906104531 58 255 0.0 0.0 0.00 0.00 0.00 52 1006.7
20260906103030 58 255 0.0 0.0 0.00 0.00 0.00 51 1006.8
20260906101529 59 255 0.0 0.0 0.00 0.00 0.00 50 1006.8
20260906100027 60 255 0.0 1.0 0.00 0.00 0.00 51 1006.8
20260906094525 57 221 1.0 4.0 0.00 0.00 0.00 58 1007.1
20260906093022 59 249 0.0 0.0 0.00 0.00 0.00 55 1006.9
20260906091531 60 198 0.0 0.0 0.00 0.00 0.00 55 1006.8
20260906090019 60 198 0.0 0.0 0.00 0.00 0.00 54 1006.5
20260906084517 60 198 0.0 0.0 0.00 0.00 0.00 54 1006.6
20260906083015 61 207 0.0 0.0 0.00 0.00 0.00 52 1006.5
20260906081515 62 205 0.0 1.0 0.00 0.00 0.00 53 1006.4
20260906080010 63 329 0.0 1.0 0.00 0.00 0.00 48 1006.3
20260906074518 63 314 0.0 1.0 0.00 0.00 0.00 50 1006.3
20260906073007 62 238 0.0 0.0 0.00 0.00 0.00 53 1006.6
20260906071507 62 214 0.0 0.0 0.00 0.00 0.00 55 1006.7
20260906070006 63 127 0.0 1.0 0.00 0.00 0.00 54 1006.6
20260906064506 63 297 1.0 3.0 0.00 0.00 0.00 54 1006.7
20260906063002 62 210 1.0 3.0 0.00 0.00 0.00 58 1006.9
20260906061609 62 189 0.0 3.0 0.00 0.00 0.00 57 1006.7
20260906060056 63 321 0.0 6.0 0.00 0.00 0.00 55 1006.4
20260906054558 63 339 1.0 2.0 0.00 0.00 0.00 54 1006.3
20260906053055 65 232 1.0 4.0 0.00 0.00 0.00 52 1006.1
20260906051602 65 215 2.0 5.0 0.00 0.00 0.00 52 1006.1
20260906050055 65 201 2.0 5.0 0.00 0.00 0.00 52 1006.2
20260906044554 65 206 2.0 4.0 0.00 0.00 0.00 53 1006.3
20260906043053 66 203 2.0 5.0 0.00 0.00 0.00 52 1006.4
20260906041552 66 214 2.0 6.0 0.00 0.00 0.00 51 1006.4
20260906040051 67 205 3.0 5.0 0.00 0.00 0.00 50 1006.4
20260906034551 68 204 3.0 7.0 0.00 0.00 0.00 49 1006.5
20260906033052 69 199 5.0 10.0 0.00 0.00 0.00 48 1006.5
20260906031559 69 210 4.0 7.0 0.00 0.00 0.00 48 1006.3
20260906030048 69 184 4.0 8.0 0.00 0.00 0.00 48 1006.1
20260906024548 69 125 3.0 9.0 0.00 0.00 0.00 48 1006.0
20260906023050 69 113 6.0 12.0 0.00 0.00 0.00 39 1006.1
20260906021548 69 240 0.0 0.0 0.00 0.00 0.00 26 1005.6
20260906020049 71 240 0.0 0.0 0.00 0.00 0.00 25 1005.4
20260906014546 71 236 0.0 0.0 0.00 0.00 0.00 25 1005.1
20260906013045 72 92 0.0 1.0 0.00 0.00 0.00 24 1005.1
20260906011545 74 69 0.0 1.0 0.00 0.00 0.00 24 1005.2
20260906010043 76 79 0.0 2.0 0.00 0.00 0.00 20 1005.3
20260906004542 76 256 2.0 4.0 0.00 0.00 0.00 20 1005.4
20260906003042 76 276 2.0 5.0 0.00 0.00 0.00 20 1005.6
20260906001540 76 248 1.0 7.0 0.00 0.00 0.00 21 1005.6
20260906000039 76 5 0.0 2.0 0.00 0.00 0.00 22 1005.5
20260905234542 76 326 0.0 2.0 0.00 0.00 0.00 21 1005.2
20260905233043 76 246 1.0 6.0 0.00 0.00 0.00 21 1005.1
20260905231537 78 240 1.0 4.0 0.00 0.00 0.00 16 1004.9
20260905230045 79 201 1.0 3.0 0.00 0.00 0.00 17 1004.8
20260905224549 78 150 1.0 5.0 0.00 0.00 0.00 19 1004.9
20260905223033 77 210 2.0 8.0 0.00 0.00 0.00 20 1005.2
20260905221534 77 259 0.0 11.0 0.00 0.00 0.00 19 1005.5
20260905220038 78 174 4.0 8.0 0.00 0.00 0.00 19 1005.4
20260905214531 77 88 2.0 6.0 0.00 0.00 0.00 18 1005.4